Time;durP1;ratioP1;P1;durP2;ratioP2;P2;SDS_P1;SDS_P2;PMS_P1;PMS_P2;Temp;Humidity;BMP_temperature;BMP_pressure;BME280_temperature;BME280_humidity;BME280_pressure;Samples;Min_cycle;Max_cycle;Signal;HPM_P1;HPM_P2
2022/08/28 00:01:32;;;;;;;;;;;;;;;;;;6094328;23;8242;-85
2022/08/28 00:03:58;;;;;;;;;;;;;;;;;;6094488;23;6981;-85
2022/08/28 00:06:25;;;;;;;;;;;;;;;;;;6094055;23;6837;-85
2022/08/28 00:08:50;;;;;;;;;;;;;;;;;;6094226;23;6918;-86
2022/08/28 00:11:16;;;;;;;;;;;;;;;;;;6069853;23;8517;-85
2022/08/28 00:13:42;;;;;;;;;;;;;;;;;;6094028;23;6827;-85
2022/08/28 00:16:09;;;;;;;;;;;;;;;;;;6093640;23;8398;-85
2022/08/28 00:18:34;;;;;;;;;;;;;;;;;;6041485;23;7151;-86
2022/08/28 00:21:00;;;;;;;;;;;;;;;;;;6040952;23;8408;-86
2022/08/28 00:23:26;;;;;;;;;;;;;;;;;;6041230;23;8685;-86
2022/08/28 00:25:51;;;;;;;;;;;;;;;;;;6041200;23;8731;-85
2022/08/28 00:28:18;;;;;;;;;;;;;;;;;;6041246;23;7046;-86
2022/08/28 00:30:47;;;;;;;;;;;;;;;;;;6041980;23;7198;-85
2022/08/28 00:33:12;;;;;;;;;;;;;;;;;;6041327;23;7076;-86
2022/08/28 00:35:40;;;;;;;;;;;;;;;;;;6017524;23;8404;-84
2022/08/28 00:38:06;;;;;;;;;;;;;;;;;;6041545;23;7068;-87
2022/08/28 00:40:32;;;;;;;;;;;;;;;;;;6041463;23;8349;-87
2022/08/28 00:42:59;;;;;;;;;;;;;;;;;;6042258;23;7090;-85
2022/08/28 00:45:25;;;;;;;;;;;;;;;;;;6040991;23;7135;-86
2022/08/28 00:47:51;;;;;;;;;;;;;;;;;;6040993;23;7326;-87
2022/08/28 00:50:19;;;;;;;;;;;;;;;;;;6041588;23;7240;-87
2022/08/28 00:52:47;;;;;;;;;;;;;;;;;;6040902;23;7197;-86
2022/08/28 00:55:16;;;;;;;;;;;;;;;;;;6040958;23;9343;-87
2022/08/28 00:57:47;;;;;;;;;;;;;;;;;;6041013;23;7129;-87
2022/08/28 01:00:18;;;;;;;;;;;;;;;;;;6041339;23;8341;-86
2022/08/28 01:02:44;;;;;;;;;;;;;;;;;;6040596;23;7037;-86
2022/08/28 01:05:13;;;;;;;;;;;;;;;;;;6040692;23;8527;-85
2022/08/28 01:07:38;;;;;;;;;;;;;;;;;;6040727;23;8459;-86
2022/08/28 01:10:09;;;;;;;;;;;;;;;;;;6039890;23;7264;-86
2022/08/28 01:12:35;;;;;;;;;;;;;;;;;;6041333;23;7097;-86
2022/08/28 01:15:09;;;;;;;;;;;;;;;;;;6041079;23;7029;-86
2022/08/28 01:17:35;;;;;;;;;;;;;;;;;;6070162;23;7129;-85
2022/08/28 01:20:05;;;;;;;;;;;;;;;;;;6094108;23;8660;-85
2022/08/28 01:22:36;;;;;;;;;;;;;;;;;;6093718;23;7196;-87
2022/08/28 01:25:04;;;;;;;;;;;;;;;;;;6069165;23;7006;-85
2022/08/28 01:27:30;;;;;;;;;;;;;;;;;;6093737;23;8380;-85
2022/08/28 01:29:56;;;;;;;;;;;;;;;;;;6093815;23;7184;-85
2022/08/28 01:32:31;;;;;;;;;;;;;;;;;;6093892;23;8389;-86
2022/08/28 01:34:57;;;;;;;;;;;;;;;;;;6093164;23;8595;-87
2022/08/28 01:37:23;;;;;;;;;;;;;;;;;;6093120;23;8363;-85
2022/08/28 01:39:48;;;;;;;;;;;;;;;;;;6093403;23;6982;-85
2022/08/28 01:42:13;;;;;;;;;;;;;;;;;;6093769;23;7127;-86
2022/08/28 01:44:39;;;;;;;;;;;;;;;;;;6093305;23;6960;-86
2022/08/28 01:47:04;;;;;;;;;;;;;;;;;;6093137;23;8755;-85
2022/08/28 01:49:30;;;;;;;;;;;;;;;;;;6093076;23;8439;-85
2022/08/28 01:51:56;;;;;;;;;;;;;;;;;;6093568;23;8573;-86
2022/08/28 01:54:22;;;;;;;;;;;;;;;;;;6093924;23;7814;-86
2022/08/28 01:56:48;;;;;;;;;;;;;;;;;;6093504;23;7176;-86
2022/08/28 01:59:14;;;;;;;;;;;;;;;;;;6044389;23;9259;-87
2022/08/28 02:01:41;;;;;;;;;;;;;;;;;;6064344;23;7023;-85
2022/08/28 02:04:07;;;;;;;;;;;;;;;;;;6065008;23;7384;-87
2022/08/28 02:06:34;;;;;;;;;;;;;;;;;;6064684;23;8240;-86
2022/08/28 02:08:59;;;;;;;;;;;;;;;;;;6064415;23;8392;-84
2022/08/28 02:11:26;;;;;;;;;;;;;;;;;;6063999;23;7220;-86
2022/08/28 02:13:53;;;;;;;;;;;;;;;;;;6064181;23;8424;-88
2022/08/28 02:16:20;;;;;;;;;;;;;;;;;;6064858;23;7050;-88
2022/08/28 02:18:45;;;;;;;;;;;;;;;;;;6064501;23;8523;-87
2022/08/28 02:21:12;;;;;;;;;;;;;;;;;;6065132;23;8246;-87
2022/08/28 02:23:39;;;;;;;;;;;;;;;;;;6066742;23;7055;-87
2022/08/28 02:26:04;;;;;;;;;;;;;;;;;;6066080;23;8396;-87
2022/08/28 02:28:30;;;;;;;;;;;;;;;;;;6066845;23;8464;-86
2022/08/28 02:30:55;;;;;;;;;;;;;;;;;;6066226;23;7127;-86
2022/08/28 02:33:21;;;;;;;;;;;;;;;;;;6065750;23;8467;-85
2022/08/28 02:35:48;;;;;;;;;;;;;;;;;;6066020;23;6997;-85
2022/08/28 02:38:15;;;;;;;;;;;;;;;;;;6066377;23;7012;-85
2022/08/28 02:40:41;;;;;;;;;;;;;;;;;;6065700;23;7148;-88
2022/08/28 02:43:07;;;;;;;;;;;;;;;;;;6065523;23;7277;-86
2022/08/28 02:45:32;;;;;;;;;;;;;;;;;;6065968;23;8324;-85
2022/08/28 02:48:00;;;;;;;;;;;;;;;;;;6066024;23;7055;-86
2022/08/28 02:50:25;;;;;;;;;;;;;;;;;;6066372;23;7293;-85
2022/08/28 02:52:51;;;;;;;;;;;;;;;;;;6065866;23;8352;-85
2022/08/28 02:55:18;;;;;;;;;;;;;;;;;;6065945;23;8436;-87
2022/08/28 02:57:45;;;;;;;;;;;;;;;;;;6065696;23;8379;-85
2022/08/28 03:00:13;;;;;;;;;;;;;;;;;;6042271;23;8419;-86
2022/08/28 03:02:40;;;;;;;;;;;;;;;;;;6042664;23;7014;-85
2022/08/28 03:05:06;;;;;;;;;;;;;;;;;;6042094;23;7348;-86
2022/08/28 03:07:32;;;;;;;;;;;;;;;;;;6042232;23;9021;-86
2022/08/28 03:09:57;;;;;;;;;;;;;;;;;;6042099;23;7003;-86
2022/08/28 03:12:23;;;;;;;;;;;;;;;;;;6041897;23;8816;-86
2022/08/28 03:14:52;;;;;;;;;;;;;;;;;;6042299;23;8689;-85
2022/08/28 03:17:18;;;;;;;;;;;;;;;;;;6042201;23;8448;-86
2022/08/28 03:19:44;;;;;;;;;;;;;;;;;;6042317;23;8401;-86
2022/08/28 03:22:11;;;;;;;;;;;;;;;;;;6042041;23;8581;-85
2022/08/28 03:24:36;;;;;;;;;;;;;;;;;;6041900;23;8450;-86
2022/08/28 03:27:03;;;;;;;;;;;;;;;;;;6042183;23;7084;-85
2022/08/28 03:29:29;;;;;;;;;;;;;;;;;;6041738;23;6817;-86
2022/08/28 03:31:54;;;;;;;;;;;;;;;;;;6042153;23;7002;-86
2022/08/28 03:34:20;;;;;;;;;;;;;;;;;;6042063;23;8343;-85
2022/08/28 03:36:45;;;;;;;;;;;;;;;;;;6041875;23;8601;-86
2022/08/28 03:39:12;;;;;;;;;;;;;;;;;;6042386;23;8644;-86
2022/08/28 03:41:39;;;;;;;;;;;;;;;;;;6041866;23;7035;-86
2022/08/28 03:44:06;;;;;;;;;;;;;;;;;;6041541;23;8571;-86
2022/08/28 03:46:32;;;;;;;;;;;;;;;;;;6042245;23;8303;-86
2022/08/28 03:48:59;;;;;;;;;;;;;;;;;;6042440;23;7015;-85
2022/08/28 03:51:26;;;;;;;;;;;;;;;;;;6042078;23;7404;-86
2022/08/28 03:53:52;;;;;;;;;;;;;;;;;;6042010;23;8363;-85
2022/08/28 03:56:21;;;;;;;;;;;;;;;;;;6041961;23;8352;-84
2022/08/28 03:58:51;;;;;;;;;;;;;;;;;;6050869;23;7036;-87
2022/08/28 04:01:17;;;;;;;;;;;;;;;;;;6065351;23;7135;-87
2022/08/28 04:03:44;;;;;;;;;;;;;;;;;;6066044;23;7404;-87
2022/08/28 04:06:09;;;;;;;;;;;;;;;;;;6065269;23;7147;-85
2022/08/28 04:08:36;;;;;;;;;;;;;;;;;;6065376;23;7017;-86
2022/08/28 04:11:02;;;;;;;;;;;;;;;;;;6065890;23;7217;-84
2022/08/28 04:13:28;;;;;;;;;;;;;;;;;;6065398;23;8446;-87
2022/08/28 04:16:03;;;;;;;;;;;;;;;;;;6065187;23;8776;-85
2022/08/28 04:18:29;;;;;;;;;;;;;;;;;;6065522;23;8289;-85
2022/08/28 04:21:06;;;;;;;;;;;;;;;;;;6065339;23;8734;-86
2022/08/28 04:23:33;;;;;;;;;;;;;;;;;;6065273;23;7115;-85
2022/08/28 04:25:59;;;;;;;;;;;;;;;;;;6065737;23;8379;-85
2022/08/28 04:28:25;;;;;;;;;;;;;;;;;;6064965;23;7172;-86
2022/08/28 04:30:53;;;;;;;;;;;;;;;;;;6065013;23;7570;-85
2022/08/28 04:33:23;;;;;;;;;;;;;;;;;;6065502;23;8298;-85
2022/08/28 04:35:49;;;;;;;;;;;;;;;;;;6065375;23;8559;-86
2022/08/28 04:38:15;;;;;;;;;;;;;;;;;;6065269;23;9238;-85
2022/08/28 04:40:42;;;;;;;;;;;;;;;;;;6064989;23;8481;-85
2022/08/28 04:43:08;;;;;;;;;;;;;;;;;;6066000;23;7143;-85
2022/08/28 04:45:44;;;;;;;;;;;;;;;;;;6063783;23;7217;-85
2022/08/28 04:48:11;;;;;;;;;;;;;;;;;;6065644;23;7030;-84
2022/08/28 04:50:44;;;;;;;;;;;;;;;;;;6064923;23;8431;-87
2022/08/28 04:53:11;;;;;;;;;;;;;;;;;;6065812;23;8748;-85
2022/08/28 04:55:47;;;;;;;;;;;;;;;;;;6065553;23;8560;-86
2022/08/28 04:58:12;;;;;;;;;;;;;;;;;;6064250;23;8396;-87
2022/08/28 05:00:39;;;;;;;;;;;;;;;;;;6064640;23;8537;-85
2022/08/28 05:03:05;;;;;;;;;;;;;;;;;;6064586;23;8365;-87
2022/08/28 05:05:31;;;;;;;;;;;;;;;;;;6065024;23;8361;-86
2022/08/28 05:07:56;;;;;;;;;;;;;;;;;;6064802;23;8347;-87
2022/08/28 05:10:22;;;;;;;;;;;;;;;;;;6064384;23;7149;-86
2022/08/28 05:12:49;;;;;;;;;;;;;;;;;;6065221;23;8469;-86
2022/08/28 05:15:14;;;;;;;;;;;;;;;;;;6062867;23;7108;-86
2022/08/28 05:17:39;;;;;;;;;;;;;;;;;;6061515;23;8411;-81
2022/08/28 05:20:05;;;;;;;;;;;;;;;;;;6059956;23;8888;-85
2022/08/28 05:22:31;;;;;;;;;;;;;;;;;;6062685;23;7491;-81
2022/08/28 05:24:59;;;;;;;;;;;;;;;;;;6063127;23;7349;-80
2022/08/28 05:27:25;;;;;;;;;;;;;;;;;;6063326;23;7324;-81
2022/08/28 05:29:51;;;;;;;;;;;;;;;;;;6062548;23;7215;-81
2022/08/28 05:32:17;;;;;;;;;;;;;;;;;;6063428;23;7133;-81
2022/08/28 05:34:42;;;;;;;;;;;;;;;;;;6062245;23;8259;-80
2022/08/28 05:37:08;;;;;;;;;;;;;;;;;;6062753;23;7070;-84
2022/08/28 05:39:33;;;;;;;;;;;;;;;;;;6063312;23;7002;-83
2022/08/28 05:41:59;;;;;;;;;;;;;;;;;;6062925;23;8424;-84
2022/08/28 05:44:25;;;;;;;;;;;;;;;;;;6063152;23;8389;-84
2022/08/28 05:46:50;;;;;;;;;;;;;;;;;;6064167;23;7146;-83
2022/08/28 05:49:18;;;;;;;;;;;;;;;;;;6062215;23;7099;-83
2022/08/28 05:51:44;;;;;;;;;;;;;;;;;;6063581;23;7024;-84
2022/08/28 05:54:10;;;;;;;;;;;;;;;;;;6063574;23;8311;-84
2022/08/28 05:56:38;;;;;;;;;;;;;;;;;;6062329;23;8454;-85
2022/08/28 05:59:04;;;;;;;;;;;;;;;;;;6064070;23;7321;-84
2022/08/28 06:01:32;;;;;;;;;;;;;;;;;;6065057;23;7139;-84
2022/08/28 06:03:59;;;;;;;;;;;;;;;;;;6065250;23;8729;-84
2022/08/28 06:06:27;;;;;;;;;;;;;;;;;;6064975;23;8332;-83
2022/08/28 06:08:58;;;;;;;;;;;;;;;;;;6064464;23;7026;-85
2022/08/28 06:11:25;;;;;;;;;;;;;;;;;;6064851;23;7101;-89
2022/08/28 06:13:50;;;;;;;;;;;;;;;;;;6064199;23;7183;-83
2022/08/28 06:16:16;;;;;;;;;;;;;;;;;;6065150;23;7012;-83
2022/08/28 06:18:42;;;;;;;;;;;;;;;;;;6064667;23;7482;-86
2022/08/28 06:21:08;;;;;;;;;;;;;;;;;;6064323;23;7479;-84
2022/08/28 06:23:34;;;;;;;;;;;;;;;;;;6064193;23;9162;-84
2022/08/28 06:25:59;;;;;;;;;;;;;;;;;;6063885;23;8323;-85
2022/08/28 06:28:26;;;;;;;;;;;;;;;;;;6064935;23;8382;-84
2022/08/28 06:30:53;;;;;;;;;;;;;;;;;;6064478;23;7018;-89
2022/08/28 06:33:20;;;;;;;;;;;;;;;;;;6064286;23;7626;-87
2022/08/28 06:35:48;;;;;;;;;;;;;;;;;;6064405;23;7192;-87
2022/08/28 06:38:14;;;;;;;;;;;;;;;;;;6064683;23;7028;-88
2022/08/28 06:40:41;;;;;;;;;;;;;;;;;;6064321;23;8316;-87
2022/08/28 06:43:08;;;;;;;;;;;;;;;;;;6064917;23;8313;-85
2022/08/28 06:45:34;;;;;;;;;;;;;;;;;;6064136;23;8643;-86
2022/08/28 06:48:00;;;;;;;;;;;;;;;;;;6064373;23;9217;-86
2022/08/28 06:50:26;;;;;;;;;;;;;;;;;;6064256;23;8420;-85
2022/08/28 06:52:52;;;;;;;;;;;;;;;;;;6064268;23;8407;-87
2022/08/28 06:55:17;;;;;;;;;;;;;;;;;;6062910;23;7042;-87
2022/08/28 06:57:43;;;;;;;;;;;;;;;;;;6063206;23;8394;-87
2022/08/28 07:00:09;;;;;;;;;;;;;;;;;;6040212;23;8490;-88
2022/08/28 07:02:34;;;;;;;;;;;;;;;;;;6039769;23;7171;-87
2022/08/28 07:05:00;;;;;;;;;;;;;;;;;;6040561;23;8671;-87
2022/08/28 07:07:26;;;;;;;;;;;;;;;;;;6040562;23;8711;-86
2022/08/28 07:09:51;;;;;;;;;;;;;;;;;;6042546;23;8811;-87
2022/08/28 07:12:17;;;;;;;;;;;;;;;;;;6041929;23;8722;-85
2022/08/28 07:14:43;;;;;;;;;;;;;;;;;;6042514;23;7156;-87
2022/08/28 07:17:09;;;;;;;;;;;;;;;;;;6041949;23;8414;-87
2022/08/28 07:19:34;;;;;;;;;;;;;;;;;;6041818;23;8736;-86
2022/08/28 07:22:00;;;;;;;;;;;;;;;;;;6042051;23;8423;-87
2022/08/28 07:24:26;;;;;;;;;;;;;;;;;;6041809;23;8497;-87
2022/08/28 07:26:51;;;;;;;;;;;;;;;;;;6042268;23;8383;-85
2022/08/28 07:29:18;;;;;;;;;;;;;;;;;;6041721;23;6976;-86
2022/08/28 07:31:45;;;;;;;;;;;;;;;;;;6041629;23;6844;-85
2022/08/28 07:34:12;;;;;;;;;;;;;;;;;;6042266;23;8367;-84
2022/08/28 07:36:38;;;;;;;;;;;;;;;;;;6041574;23;7203;-86
2022/08/28 07:39:04;;;;;;;;;;;;;;;;;;6042083;23;9118;-85
2022/08/28 07:41:32;;;;;;;;;;;;;;;;;;6042011;23;8568;-85
2022/08/28 07:46:43;;;;;;;;;;;;;;;;;;6043075;23;6812;-86
2022/08/28 07:49:09;;;;;;;;;;;;;;;;;;6041443;23;8457;-84
2022/08/28 07:51:36;;;;;;;;;;;;;;;;;;6041607;23;8572;-86
2022/08/28 07:54:02;;;;;;;;;;;;;;;;;;6041487;23;8478;-86
2022/08/28 07:56:28;;;;;;;;;;;;;;;;;;6041781;23;8687;-86
2022/08/28 07:58:57;;;;;;;;;;;;;;;;;;6051881;23;8788;-84
2022/08/28 08:01:24;;;;;;;;;;;;;;;;;;6065322;23;8395;-85
2022/08/28 08:03:50;;;;;;;;;;;;;;;;;;6065210;23;8435;-85
2022/08/28 08:06:16;;;;;;;;;;;;;;;;;;6065334;23;7020;-86
2022/08/28 08:08:41;;;;;;;;;;;;;;;;;;6065241;23;8780;-86
2022/08/28 08:11:07;;;;;;;;;;;;;;;;;;6065224;23;8449;-88
2022/08/28 08:13:36;;;;;;;;;;;;;;;;;;6041851;23;8422;-88
2022/08/28 08:16:05;;;;;;;;;;;;;;;;;;6065911;23;7424;-88
2022/08/28 08:18:32;;;;;;;;;;;;;;;;;;6065561;23;7329;-88
2022/08/28 08:20:58;;;;;;;;;;;;;;;;;;6066023;23;8274;-84
2022/08/28 08:23:24;;;;;;;;;;;;;;;;;;6065182;23;8622;-88
2022/08/28 08:25:54;;;;;;;;;;;;;;;;;;6065219;23;8678;-87
2022/08/28 08:28:20;;;;;;;;;;;;;;;;;;6066165;23;8883;-87
2022/08/28 08:30:46;;;;;;;;;;;;;;;;;;6065576;23;7032;-89
2022/08/28 08:33:12;;;;;;;;;;;;;;;;;;6067063;23;7174;-88
2022/08/28 08:35:38;;;;;;;;;;;;;;;;;;6067097;23;8400;-87
2022/08/28 08:38:05;;;;;;;;;;;;;;;;;;6066116;23;8760;-88
2022/08/28 08:40:33;;;;;;;;;;;;;;;;;;6066077;23;9186;-85
2022/08/28 08:43:00;;;;;;;;;;;;;;;;;;6065213;23;8383;-86
2022/08/28 08:45:29;;;;;;;;;;;;;;;;;;6064901;23;7030;-85
2022/08/28 08:47:55;;;;;;;;;;;;;;;;;;6065064;23;8504;-85
2022/08/28 08:50:34;;;;;;;;;;;;;;;;;;6064937;23;7164;-86
2022/08/28 08:53:05;;;;;;;;;;;;;;;;;;6065399;23;8399;-85
2022/08/28 08:55:49;;;;;;;;;;;;;;;;;;6040718;23;8423;-86
2022/08/28 08:58:23;;;;;;;;;;;;;;;;;;6064771;23;8434;-86
2022/08/28 09:00:55;;;;;;;;;;;;;;;;;;6064783;23;7406;-85
2022/08/28 09:03:41;;;;;;;;;;;;;;;;;;6064939;23;8569;-85
2022/08/28 09:06:17;;;;;;;;;;;;;;;;;;6035533;23;8379;-87
2022/08/28 09:08:48;;;;;;;;;;;;;;;;;;6065000;23;8245;-87
2022/08/28 09:11:25;;;;;;;;;;;;;;;;;;6064661;23;8496;-88
2022/08/28 09:13:58;;;;;;;;;;;;;;;;;;6040764;23;8446;-88
2022/08/28 09:16:33;;;;;;;;;;;;;;;;;;6065293;23;8625;-85
2022/08/28 09:19:00;;;;;;;;;;;;;;;;;;6064661;23;7174;-86
2022/08/28 09:21:28;;;;;;;;;;;;;;;;;;6064696;23;7063;-86
2022/08/28 09:23:54;;;;;;;;;;;;;;;;;;6064428;23;8925;-87
2022/08/28 09:26:22;;;;;;;;;;;;;;;;;;6064390;23;8385;-86
2022/08/28 09:28:59;;;;;;;;;;;;;;;;;;6064656;23;8381;-86
2022/08/28 09:31:30;;;;;;;;;;;;;;;;;;6065331;23;8446;-87
2022/08/28 09:34:16;;;;;;;;;;;;;;;;;;6064972;23;8518;-86
2022/08/28 09:36:41;;;;;;;;;;;;;;;;;;6064968;23;7198;-86
2022/08/28 09:39:07;;;;;;;;;;;;;;;;;;6065363;23;8372;-87
2022/08/28 09:44:26;;;;;;;;;;;;;;;;;;6041986;23;7099;-86
2022/08/28 09:46:52;;;;;;;;;;;;;;;;;;6064399;23;8640;-87
2022/08/28 09:49:29;;;;;;;;;;;;;;;;;;6064554;23;8418;-86
2022/08/28 09:51:58;;;;;;;;;;;;;;;;;;6064686;23;8429;-85
2022/08/28 09:54:34;;;;;;;;;;;;;;;;;;6064294;23;8706;-87
2022/08/28 09:57:02;;;;;;;;;;;;;;;;;;6064724;23;7014;-85
2022/08/28 09:59:28;;;;;;;;;;;;;;;;;;6064675;23;7430;-86
2022/08/28 10:02:23;;;;;;;;;;;;;;;;;;6064131;23;8535;-85
2022/08/28 10:04:49;;;;;;;;;;;;;;;;;;6052755;23;8434;-86
2022/08/28 10:07:20;;;;;;;;;;;;;;;;;;6040284;23;8401;-85
2022/08/28 10:09:46;;;;;;;;;;;;;;;;;;6040535;23;8439;-85
2022/08/28 10:12:24;;;;;;;;;;;;;;;;;;6040163;23;6842;-86
2022/08/28 10:14:56;;;;;;;;;;;;;;;;;;6040253;23;7371;-86
2022/08/28 10:17:36;;;;;;;;;;;;;;;;;;6040860;23;8334;-87
2022/08/28 10:20:20;;;;;;;;;;;;;;;;;;6064203;23;8431;-85
2022/08/28 10:23:06;;;;;;;;;;;;;;;;;;6064445;23;8367;-86
2022/08/28 10:25:41;;;;;;;;;;;;;;;;;;6054570;23;7226;-86
2022/08/28 10:28:13;;;;;;;;;;;;;;;;;;6064467;23;8819;-86
2022/08/28 10:30:48;;;;;;;;;;;;;;;;;;6040332;23;8417;-87
2022/08/28 10:33:17;;;;;;;;;;;;;;;;;;6064273;23;8472;-87
2022/08/28 10:35:59;;;;;;;;;;;;;;;;;;6041047;23;8581;-86
2022/08/28 10:38:39;;;;;;;;;;;;;;;;;;6064305;23;8383;-86
2022/08/28 10:41:14;;;;;;;;;;;;;;;;;;6063740;23;8444;-86
2022/08/28 10:43:48;;;;;;;;;;;;;;;;;;6065374;23;7292;-87
2022/08/28 10:46:22;;;;;;;;;;;;;;;;;;6066420;23;8499;-86
2022/08/28 10:49:07;;;;;;;;;;;;;;;;;;6066043;23;8865;-87
2022/08/28 10:51:39;;;;;;;;;;;;;;;;;;6066211;23;8352;-88
2022/08/28 10:54:25;;;;;;;;;;;;;;;;;;6042192;23;7184;-88
2022/08/28 10:56:54;;;;;;;;;;;;;;;;;;6065310;23;8444;-88
2022/08/28 10:59:21;;;;;;;;;;;;;;;;;;6065518;23;8775;-86
2022/08/28 11:01:48;;;;;;;;;;;;;;;;;;6065832;23;8713;-86
2022/08/28 11:04:22;;;;;;;;;;;;;;;;;;6066461;23;8693;-86
2022/08/28 11:06:48;;;;;;;;;;;;;;;;;;6066949;23;7254;-85
2022/08/28 11:09:25;;;;;;;;;;;;;;;;;;6041722;23;7020;-86
2022/08/28 11:11:55;;;;;;;;;;;;;;;;;;6066058;23;8691;-85
2022/08/28 11:14:23;;;;;;;;;;;;;;;;;;6066049;23;8565;-85
2022/08/28 11:16:50;;;;;;;;;;;;;;;;;;6041816;23;8459;-85
2022/08/28 11:19:21;;;;;;;;;;;;;;;;;;6065688;23;7060;-85
2022/08/28 11:22:00;;;;;;;;;;;;;;;;;;6041918;23;8430;-85
2022/08/28 11:24:38;;;;;;;;;;;;;;;;;;6065570;23;7376;-85
2022/08/28 11:27:17;;;;;;;;;;;;;;;;;;6042126;23;8677;-85
2022/08/28 11:29:56;;;;;;;;;;;;;;;;;;6065658;23;8668;-85
2022/08/28 11:32:45;;;;;;;;;;;;;;;;;;6065721;23;8440;-85
2022/08/28 11:35:19;;;;;;;;;;;;;;;;;;6057745;23;8517;-86
2022/08/28 11:37:50;;;;;;;;;;;;;;;;;;6041514;23;8317;-86
2022/08/28 11:40:16;;;;;;;;;;;;;;;;;;6065506;23;8629;-85
2022/08/28 11:42:42;;;;;;;;;;;;;;;;;;6041871;23;6807;-85
2022/08/28 11:45:17;;;;;;;;;;;;;;;;;;6065912;23;7159;-85
2022/08/28 11:47:50;;;;;;;;;;;;;;;;;;6065655;23;7055;-85
2022/08/28 11:50:20;;;;;;;;;;;;;;;;;;6065437;23;7172;-85
2022/08/28 11:53:24;;;;;;;;;;;;;;;;;;6065402;23;7213;-86
2022/08/28 11:55:55;;;;;;;;;;;;;;;;;;6012290;23;8603;-86
2022/08/28 11:58:38;;;;;;;;;;;;;;;;;;5980497;24;9088;-86
2022/08/28 12:01:04;;;;;;;;;;;;;;;;;;5984952;24;7194;-88
2022/08/28 12:03:33;;;;;;;;;;;;;;;;;;5960933;24;7930;-86
2022/08/28 12:06:00;;;;;;;;;;;;;;;;;;5983894;23;8556;-86
2022/08/28 12:08:46;;;;;;;;;;;;;;;;;;5984124;23;8793;-86
2022/08/28 12:11:30;;;;;;;;;;;;;;;;;;5964322;24;8501;-86
2022/08/28 12:13:57;;;;;;;;;;;;;;;;;;5961580;24;8775;-84
2022/08/28 12:16:23;;;;;;;;;;;;;;;;;;5984042;23;9551;-86
2022/08/28 12:18:48;;;;;;;;;;;;;;;;;;5983956;24;8756;-86
2022/08/28 12:21:23;;;;;;;;;;;;;;;;;;5960537;24;7175;-84
2022/08/28 12:24:03;;;;;;;;;;;;;;;;;;5984214;23;8415;-86
2022/08/28 12:26:36;;;;;;;;;;;;;;;;;;6010728;23;8907;-86
2022/08/28 12:29:05;;;;;;;;;;;;;;;;;;6041189;23;8786;-87
2022/08/28 12:34:27;;;;;;;;;;;;;;;;;;6043043;23;6813;-86
2022/08/28 12:36:59;;;;;;;;;;;;;;;;;;6018161;23;8556;-86
2022/08/28 12:39:27;;;;;;;;;;;;;;;;;;6041458;23;8412;-87
2022/08/28 12:41:53;;;;;;;;;;;;;;;;;;6041702;23;8409;-88
2022/08/28 12:44:28;;;;;;;;;;;;;;;;;;6040927;23;8689;-88
2022/08/28 12:46:55;;;;;;;;;;;;;;;;;;6041058;23;8411;-86
2022/08/28 12:49:27;;;;;;;;;;;;;;;;;;6041071;23;8408;-86
2022/08/28 12:52:26;;;;;;;;;;;;;;;;;;6040887;23;8349;-87
2022/08/28 12:54:54;;;;;;;;;;;;;;;;;;5991050;23;7173;-83
2022/08/28 12:57:22;;;;;;;;;;;;;;;;;;6036365;23;8346;-84
2022/08/28 12:59:51;;;;;;;;;;;;;;;;;;6060495;23;8483;-83
2022/08/28 13:02:16;;;;;;;;;;;;;;;;;;6063066;23;8405;-82
2022/08/28 13:04:51;;;;;;;;;;;;;;;;;;6039613;23;8561;-84
2022/08/28 13:07:23;;;;;;;;;;;;;;;;;;6062210;23;7078;-86
2022/08/28 13:09:52;;;;;;;;;;;;;;;;;;6063590;23;8531;-84
2022/08/28 13:12:33;;;;;;;;;;;;;;;;;;6063246;23;8865;-87
2022/08/28 13:15:00;;;;;;;;;;;;;;;;;;6063720;23;8447;-88
2022/08/28 13:17:44;;;;;;;;;;;;;;;;;;6063238;23;8826;-86
2022/08/28 13:20:11;;;;;;;;;;;;;;;;;;6039554;23;7368;-86
2022/08/28 13:22:41;;;;;;;;;;;;;;;;;;6063583;23;8691;-86
2022/08/28 13:25:07;;;;;;;;;;;;;;;;;;6062708;23;8387;-86
2022/08/28 13:27:33;;;;;;;;;;;;;;;;;;6063113;23;8535;-86
2022/08/28 13:30:19;;;;;;;;;;;;;;;;;;6061936;23;6838;-86
2022/08/28 13:32:56;;;;;;;;;;;;;;;;;;6062447;23;7278;-86
2022/08/28 13:35:22;;;;;;;;;;;;;;;;;;6063480;23;8492;-86
2022/08/28 13:37:49;;;;;;;;;;;;;;;;;;6038807;23;7155;-86
2022/08/28 13:40:17;;;;;;;;;;;;;;;;;;6062243;23;7074;-86
2022/08/28 13:42:43;;;;;;;;;;;;;;;;;;6064563;23;6829;-86
2022/08/28 13:45:09;;;;;;;;;;;;;;;;;;6064211;23;8379;-83
2022/08/28 13:47:35;;;;;;;;;;;;;;;;;;6064500;23;8411;-86
2022/08/28 13:50:00;;;;;;;;;;;;;;;;;;6064519;23;7481;-86
2022/08/28 13:52:26;;;;;;;;;;;;;;;;;;6064486;23;8801;-86
2022/08/28 13:54:51;;;;;;;;;;;;;;;;;;6064341;23;8410;-86
2022/08/28 13:57:17;;;;;;;;;;;;;;;;;;6064748;23;8414;-86
2022/08/28 13:59:42;;;;;;;;;;;;;;;;;;6064562;23;8366;-86
2022/08/28 14:04:55;;;;;;;;;;;;;;;;;;6042466;23;6837;-87
2022/08/28 14:07:22;;;;;;;;;;;;;;;;;;6064175;23;8645;-87
2022/08/28 14:09:47;;;;;;;;;;;;;;;;;;6064398;23;8905;-87
2022/08/28 14:12:13;;;;;;;;;;;;;;;;;;6064397;23;8762;-87
2022/08/28 14:14:39;;;;;;;;;;;;;;;;;;6064287;23;9730;-85
2022/08/28 14:17:05;;;;;;;;;;;;;;;;;;6065288;23;8485;-85
2022/08/28 14:19:31;;;;;;;;;;;;;;;;;;6066393;23;8485;-86
2022/08/28 14:21:57;;;;;;;;;;;;;;;;;;6066071;23;8460;-86
2022/08/28 14:24:22;;;;;;;;;;;;;;;;;;6066432;23;8764;-86
2022/08/28 14:26:48;;;;;;;;;;;;;;;;;;6064775;23;7026;-84
2022/08/28 14:29:16;;;;;;;;;;;;;;;;;;6058215;23;7043;-87
2022/08/28 14:31:42;;;;;;;;;;;;;;;;;;6066113;23;8462;-86
2022/08/28 14:34:10;;;;;;;;;;;;;;;;;;6066493;23;7438;-87
2022/08/28 14:36:35;;;;;;;;;;;;;;;;;;6066291;23;8402;-87
2022/08/28 14:39:03;;;;;;;;;;;;;;;;;;6066157;23;7091;-87
2022/08/28 14:41:28;;;;;;;;;;;;;;;;;;6066091;23;7035;-86
2022/08/28 14:43:54;;;;;;;;;;;;;;;;;;6065948;23;8725;-87
2022/08/28 14:46:26;;;;;;;;;;;;;;;;;;6063893;23;8377;-80
2022/08/28 14:48:53;;;;;;;;;;;;;;;;;;6066235;23;8455;-85
2022/08/28 14:51:19;;;;;;;;;;;;;;;;;;6066445;23;8409;-87
2022/08/28 14:53:45;;;;;;;;;;;;;;;;;;6066288;23;8385;-86
2022/08/28 14:56:10;;;;;;;;;;;;;;;;;;6065514;23;8792;-87
2022/08/28 14:58:36;;;;;;;;;;;;;;;;;;6065522;23;8393;-86
2022/08/28 15:01:03;;;;;;;;;;;;;;;;;;6065794;23;8428;-87
2022/08/28 15:03:30;;;;;;;;;;;;;;;;;;6065789;23;8700;-87
2022/08/28 15:06:06;;;;;;;;;;;;;;;;;;6065778;23;8444;-84
2022/08/28 15:08:33;;;;;;;;;;;;;;;;;;6065626;23;8676;-86
2022/08/28 15:11:03;;;;;;;;;;;;;;;;;;6065766;23;8509;-86
2022/08/28 15:13:29;;;;;;;;;;;;;;;;;;6065742;23;9008;-86
2022/08/28 15:16:03;;;;;;;;;;;;;;;;;;6065757;23;7154;-85
2022/08/28 15:18:28;;;;;;;;;;;;;;;;;;6067220;23;8479;-84
2022/08/28 15:20:54;;;;;;;;;;;;;;;;;;6069784;23;8852;-86
2022/08/28 15:23:21;;;;;;;;;;;;;;;;;;6068461;23;7061;-85
2022/08/28 15:25:46;;;;;;;;;;;;;;;;;;6065448;23;7073;-85
2022/08/28 15:28:12;;;;;;;;;;;;;;;;;;6065167;23;8483;-85
2022/08/28 15:30:38;;;;;;;;;;;;;;;;;;6065519;23;8411;-87
2022/08/28 15:33:04;;;;;;;;;;;;;;;;;;6065565;23;8420;-86
2022/08/28 15:35:29;;;;;;;;;;;;;;;;;;6065911;23;8627;-86
2022/08/28 15:37:55;;;;;;;;;;;;;;;;;;6065823;23;8488;-86
2022/08/28 15:43:04;;;;;;;;;;;;;;;;;;6037261;23;6810;-87
2022/08/28 15:45:30;;;;;;;;;;;;;;;;;;6062278;23;8440;-82
2022/08/28 15:47:57;;;;;;;;;;;;;;;;;;6062099;23;7034;-83
2022/08/28 15:50:23;;;;;;;;;;;;;;;;;;6063089;23;8595;-87
2022/08/28 15:52:48;;;;;;;;;;;;;;;;;;6060909;23;8373;-84
2022/08/28 15:55:14;;;;;;;;;;;;;;;;;;6062328;23;9230;-86
2022/08/28 15:57:39;;;;;;;;;;;;;;;;;;6061366;23;7314;-86
2022/08/28 16:00:06;;;;;;;;;;;;;;;;;;6039122;23;8389;-86
2022/08/28 16:02:32;;;;;;;;;;;;;;;;;;6038447;23;8778;-86
2022/08/28 16:04:57;;;;;;;;;;;;;;;;;;6037643;23;9599;-80
2022/08/28 16:07:23;;;;;;;;;;;;;;;;;;6039575;23;8404;-82
2022/08/28 16:09:50;;;;;;;;;;;;;;;;;;6041500;23;8513;-81
2022/08/28 16:12:16;;;;;;;;;;;;;;;;;;6041421;23;7093;-81
2022/08/28 16:14:41;;;;;;;;;;;;;;;;;;6041349;23;8381;-81
2022/08/28 16:17:07;;;;;;;;;;;;;;;;;;6041223;23;8284;-82
2022/08/28 16:19:33;;;;;;;;;;;;;;;;;;6041261;23;8704;-82
2022/08/28 16:21:59;;;;;;;;;;;;;;;;;;6041340;23;8456;-82
2022/08/28 16:24:24;;;;;;;;;;;;;;;;;;6041966;23;8855;-81
2022/08/28 16:26:50;;;;;;;;;;;;;;;;;;6040830;23;8691;-82
2022/08/28 16:29:16;;;;;;;;;;;;;;;;;;6041633;23;7885;-81
2022/08/28 16:31:42;;;;;;;;;;;;;;;;;;6041608;23;8510;-83
2022/08/28 16:34:07;;;;;;;;;;;;;;;;;;6041023;23;8763;-81
2022/08/28 16:36:33;;;;;;;;;;;;;;;;;;6041011;23;8421;-80
2022/08/28 16:38:58;;;;;;;;;;;;;;;;;;6041091;23;7500;-81
2022/08/28 16:41:25;;;;;;;;;;;;;;;;;;6040882;23;8736;-82
2022/08/28 16:43:52;;;;;;;;;;;;;;;;;;6040881;23;8515;-81
2022/08/28 16:46:23;;;;;;;;;;;;;;;;;;6041113;23;8466;-81
2022/08/28 16:48:49;;;;;;;;;;;;;;;;;;6040990;23;7039;-81
2022/08/28 16:51:15;;;;;;;;;;;;;;;;;;6040888;23;8418;-82
2022/08/28 16:53:41;;;;;;;;;;;;;;;;;;6041337;23;8641;-81
2022/08/28 16:56:08;;;;;;;;;;;;;;;;;;6041514;23;7078;-81
2022/08/28 16:58:35;;;;;;;;;;;;;;;;;;6047027;23;8744;-81
2022/08/28 17:01:01;;;;;;;;;;;;;;;;;;6065093;23;8491;-82
2022/08/28 17:03:27;;;;;;;;;;;;;;;;;;6064800;23;7149;-81
2022/08/28 17:05:54;;;;;;;;;;;;;;;;;;6064665;23;7025;-82
2022/08/28 17:08:20;;;;;;;;;;;;;;;;;;6064618;23;8577;-81
2022/08/28 17:10:46;;;;;;;;;;;;;;;;;;6064631;23;8479;-81
2022/08/28 17:13:11;;;;;;;;;;;;;;;;;;6065849;23;8535;-81
2022/08/28 17:15:37;;;;;;;;;;;;;;;;;;6064624;23;7272;-81
2022/08/28 17:18:03;;;;;;;;;;;;;;;;;;6064830;23;8986;-82
2022/08/28 17:23:14;;;;;;;;;;;;;;;;;;6041982;23;6940;-81
2022/08/28 17:25:39;;;;;;;;;;;;;;;;;;6064564;23;8805;-81
2022/08/28 17:28:05;;;;;;;;;;;;;;;;;;6064737;23;8560;-82